Terminal Aerodrome Forecast
Issued by NWS Austin/San Antonio, TX

Home | Current Version | Previous Version | Text Only | Print | Product List | Glossary On
Versions: 1 2 3 4 5 6 7 8 9 10 11 12 13 14 15 16 17 18 19 20 21 22 23 24 25 26 27 28
000
FTUS44 KEWX 191700
TAFDRT
TAF
KDRT 191739Z 1918/2018 34008KT P6SM SCT020 BKN035
      TEMPO 1918/1920 BKN020
     FM192000 32006KT P6SM BKN035 BKN250
     FM200400 04004KT P6SM OVC030
     FM201000 07003KT P6SM OVC025
     FM201400 12005KT P6SM BKN015 OVC025=

USA.gov is the U.S. government's official web portal to all federal, state and local government web resources and services.